createdAt,value
2022-09-25T00:00:57.242Z,3.10
2022-09-25T00:03:26.539Z,2.83
2022-09-25T00:05:53.545Z,2.33
2022-09-25T00:08:20.573Z,2.67
2022-09-25T00:10:50.144Z,3.00
2022-09-25T00:13:19.116Z,2.80
2022-09-25T00:15:48.216Z,4.77
2022-09-25T00:18:15.945Z,2.67
2022-09-25T00:20:42.901Z,2.80
2022-09-25T00:23:09.596Z,3.03
2022-09-25T00:25:36.694Z,3.10
2022-09-25T00:28:03.426Z,3.40
2022-09-25T00:30:30.286Z,3.23
2022-09-25T00:32:56.998Z,3.00
2022-09-25T00:35:23.665Z,3.00
2022-09-25T00:37:50.367Z,3.10
2022-09-25T00:40:17.323Z,2.90
2022-09-25T00:42:44.535Z,5.03
2022-09-25T00:45:18.832Z,2.93
2022-09-25T00:47:59.853Z,3.20
2022-09-25T00:50:41.552Z,2.70
2022-09-25T00:53:31.278Z,2.33
2022-09-25T00:55:59.042Z,2.50
2022-09-25T00:58:29.263Z,2.90
2022-09-25T01:00:56.410Z,2.47
2022-09-25T01:03:23.564Z,2.67
2022-09-25T01:05:50.443Z,2.63
2022-09-25T01:08:21.329Z,2.87
2022-09-25T01:10:48.193Z,2.60
2022-09-25T01:13:16.161Z,3.20
2022-09-25T01:15:57.167Z,2.93
2022-09-25T01:18:35.817Z,2.80
2022-09-25T01:21:25.189Z,3.30
2022-09-25T01:24:06.369Z,3.30
2022-09-25T01:27:10.623Z,2.70
2022-09-25T01:29:45.526Z,3.07
2022-09-25T01:32:31.056Z,2.53
2022-09-25T01:35:28.305Z,2.43
2022-09-25T01:38:09.501Z,2.80
2022-09-25T01:40:43.464Z,2.10
2022-09-25T01:43:12.404Z,3.03
2022-09-25T01:45:43.737Z,2.47
2022-09-25T01:48:13.963Z,2.90
2022-09-25T01:50:53.208Z,3.07
2022-09-25T01:53:26.083Z,3.30
2022-09-25T01:56:04.706Z,2.90
2022-09-25T01:58:36.869Z,6.10
2022-09-25T02:01:22.359Z,2.70
2022-09-25T02:03:52.264Z,3.40
2022-09-25T02:06:20.960Z,2.93
2022-09-25T02:08:54.016Z,2.83
2022-09-25T02:11:21.574Z,3.77
2022-09-25T02:14:07.424Z,2.90
2022-09-25T02:16:43.827Z,3.70
2022-09-25T02:19:31.917Z,4.80
2022-09-25T02:22:06.246Z,3.70
2022-09-25T02:24:39.983Z,3.10
2022-09-25T02:27:06.944Z,3.77
2022-09-25T02:29:34.428Z,3.80
2022-09-25T02:32:08.981Z,3.60
2022-09-25T02:34:36.779Z,3.50
2022-09-25T02:37:09.763Z,3.40
2022-09-25T02:39:36.605Z,3.73
2022-09-25T02:42:18.357Z,3.60
2022-09-25T02:44:56.989Z,3.63
2022-09-25T02:47:39.343Z,3.50
2022-09-25T02:50:36.754Z,3.30
2022-09-25T02:53:15.671Z,3.60
2022-09-25T02:55:51.203Z,4.13
2022-09-25T02:58:39.948Z,3.07
2022-09-25T03:01:10.538Z,4.10
2022-09-25T03:03:39.032Z,3.00
2022-09-25T03:06:08.213Z,3.33
2022-09-25T03:08:37.875Z,3.90
2022-09-25T03:11:06.300Z,5.87
2022-09-25T03:13:33.192Z,4.30
2022-09-25T03:16:13.673Z,3.40
2022-09-25T03:18:40.502Z,4.00
2022-09-25T03:21:07.291Z,3.90
2022-09-25T03:23:33.955Z,3.63
2022-09-25T03:26:00.758Z,3.10
2022-09-25T03:28:27.546Z,3.83
2022-09-25T03:31:03.062Z,4.00
2022-09-25T03:33:34.564Z,4.03
2022-09-25T03:36:06.086Z,3.77
2022-09-25T03:38:33.516Z,4.00
2022-09-25T03:41:00.296Z,3.60
2022-09-25T03:43:27.100Z,4.17
2022-09-25T03:45:53.891Z,3.20
2022-09-25T03:48:21.052Z,3.70
2022-09-25T03:50:49.828Z,3.43
2022-09-25T03:53:18.166Z,3.43
2022-09-25T03:55:48.527Z,3.70
2022-09-25T03:58:16.652Z,3.70
2022-09-25T04:00:44.782Z,3.40
2022-09-25T04:03:12.183Z,4.07
2022-09-25T04:05:38.972Z,4.20
2022-09-25T04:08:06.012Z,4.00
2022-09-25T04:10:33.173Z,4.10
2022-09-25T04:13:00.031Z,3.60
2022-09-25T04:15:26.708Z,3.87
2022-09-25T04:17:53.387Z,3.80
2022-09-25T04:20:20.212Z,3.63
2022-09-25T04:22:46.868Z,4.17
2022-09-25T04:25:14.248Z,3.73
2022-09-25T04:27:41.005Z,3.90
2022-09-25T04:30:08.366Z,3.53
2022-09-25T04:32:53.551Z,3.70
2022-09-25T04:35:20.296Z,4.13
2022-09-25T04:37:46.982Z,4.20
2022-09-25T04:40:13.736Z,3.57
2022-09-25T04:42:43.093Z,3.50
2022-09-25T04:45:10.165Z,4.23
2022-09-25T04:47:36.935Z,4.20
2022-09-25T04:50:03.781Z,3.80
2022-09-25T04:52:31.784Z,4.00
2022-09-25T04:54:58.860Z,4.30
2022-09-25T04:57:53.399Z,3.83
2022-09-25T05:00:17.132Z,4.10
2022-09-25T05:02:45.158Z,3.87
2022-09-25T05:05:11.943Z,3.97
2022-09-25T05:07:39.479Z,3.40
2022-09-25T05:10:08.651Z,3.90
2022-09-25T05:12:36.769Z,3.97
2022-09-25T05:15:03.594Z,3.50
2022-09-25T05:17:30.254Z,3.67
2022-09-25T05:19:56.935Z,3.63
2022-09-25T05:22:23.780Z,3.60
2022-09-25T05:24:54.140Z,3.80
2022-09-25T05:27:24.905Z,3.47
2022-09-25T05:29:51.672Z,3.43
2022-09-25T05:32:18.947Z,5.00
2022-09-25T05:34:45.603Z,3.80
2022-09-25T05:37:12.258Z,3.67
2022-09-25T05:39:38.928Z,3.60
2022-09-25T05:42:05.913Z,3.30
2022-09-25T05:44:32.935Z,3.70
2022-09-25T05:46:59.596Z,3.00
2022-09-25T05:49:26.251Z,2.97
2022-09-25T05:51:52.904Z,3.57
2022-09-25T05:54:19.563Z,3.40
2022-09-25T05:56:46.264Z,3.40
2022-09-25T05:59:12.999Z,3.40
2022-09-25T06:01:41.208Z,3.57
2022-09-25T06:04:08.209Z,3.23
2022-09-25T06:10:26.819Z,3.60
2022-09-25T06:12:58.947Z,3.30
2022-09-25T06:15:36.054Z,3.40
2022-09-25T06:18:04.070Z,3.10
2022-09-25T06:20:30.992Z,3.47
2022-09-25T06:22:58.656Z,2.90
2022-09-25T06:25:27.829Z,3.37
2022-09-25T06:27:57.935Z,3.20
2022-09-25T06:30:27.506Z,3.17
2022-09-25T06:33:09.473Z,3.13
2022-09-25T06:35:37.115Z,3.20
2022-09-25T06:38:04.951Z,3.10
2022-09-25T06:40:32.260Z,3.27
2022-09-25T06:43:00.864Z,3.60
2022-09-25T06:45:29.776Z,3.20
2022-09-25T06:48:05.886Z,3.70
2022-09-25T06:50:43.240Z,3.80
2022-09-25T06:53:11.226Z,3.13
2022-09-25T06:55:38.278Z,3.20
2022-09-25T06:58:07.152Z,3.20
2022-09-25T07:00:34.297Z,3.17
2022-09-25T07:03:20.003Z,3.50
2022-09-25T07:05:48.044Z,3.20
2022-09-25T07:08:16.818Z,3.37
2022-09-25T07:10:54.806Z,3.43
2022-09-25T07:13:27.670Z,3.83
2022-09-25T07:16:04.206Z,3.33
2022-09-25T07:18:31.106Z,3.37
2022-09-25T07:21:03.448Z,3.27
2022-09-25T07:23:31.289Z,3.77
2022-09-25T07:26:13.626Z,3.20
2022-09-25T07:28:42.562Z,3.03
2022-09-25T07:31:19.142Z,2.90
2022-09-25T07:33:47.188Z,3.20
2022-09-25T07:36:15.557Z,3.50
2022-09-25T07:38:42.863Z,3.30
2022-09-25T07:41:13.526Z,3.80
2022-09-25T07:43:43.234Z,3.47
2022-09-25T07:46:10.541Z,4.00
2022-09-25T07:48:37.289Z,3.67
2022-09-25T07:51:06.790Z,3.80
2022-09-25T07:53:33.468Z,3.60
2022-09-25T07:56:06.195Z,4.00
2022-09-25T07:58:35.208Z,4.43
2022-09-25T08:01:04.043Z,3.60
2022-09-25T08:03:30.846Z,3.80
2022-09-25T08:06:04.867Z,4.13
2022-09-25T08:08:32.918Z,4.07
2022-09-25T08:11:02.721Z,3.93
2022-09-25T08:13:32.386Z,3.90
2022-09-25T08:16:01.751Z,3.70
2022-09-25T08:18:28.545Z,3.90
2022-09-25T08:21:00.191Z,4.17
2022-09-25T08:23:27.961Z,4.33
2022-09-25T08:25:54.636Z,4.83
2022-09-25T08:28:22.433Z,4.67
2022-09-25T08:30:50.031Z,5.13
2022-09-25T08:33:17.073Z,6.37
2022-09-25T08:35:43.898Z,5.00
2022-09-25T08:38:12.252Z,5.30
2022-09-25T08:40:52.396Z,5.80
2022-09-25T08:43:23.293Z,6.03
2022-09-25T08:46:10.177Z,5.27
2022-09-25T08:49:04.748Z,6.03
2022-09-25T08:51:42.623Z,4.90
2022-09-25T08:54:22.520Z,4.83
2022-09-25T08:56:52.396Z,5.90
2022-09-25T08:59:34.672Z,5.80
2022-09-25T09:02:09.413Z,5.90
2022-09-25T09:04:46.203Z,5.93
2022-09-25T09:07:26.727Z,5.50
2022-09-25T09:10:00.834Z,5.50
2022-09-25T09:12:40.046Z,6.37
2022-09-25T09:15:32.649Z,5.67
2022-09-25T09:18:01.336Z,6.47
2022-09-25T09:20:55.552Z,6.50
2022-09-25T09:23:24.862Z,5.47
2022-09-25T09:26:06.527Z,6.43
2022-09-25T09:29:12.034Z,5.87
2022-09-25T09:32:07.786Z,6.10
2022-09-25T09:34:53.498Z,6.33
2022-09-25T09:37:42.602Z,5.90
2022-09-25T09:44:23.862Z,5.40
2022-09-25T09:46:50.651Z,6.03
2022-09-25T09:49:29.728Z,7.10
2022-09-25T09:52:04.809Z,7.63
2022-09-25T09:54:55.672Z,9.77
2022-09-25T09:57:27.213Z,10.87
2022-09-25T10:00:06.756Z,10.43
2022-09-25T10:02:50.654Z,13.60
2022-09-25T10:05:24.096Z,11.40
2022-09-25T10:07:51.769Z,13.77
2022-09-25T10:10:19.711Z,11.07
2022-09-25T10:12:52.085Z,12.33
2022-09-25T10:15:39.358Z,11.80
2022-09-25T10:18:07.719Z,11.60
2022-09-25T10:20:45.492Z,10.90
2022-09-25T10:23:44.763Z,10.80
2022-09-25T10:26:30.110Z,9.47
2022-09-25T10:29:02.326Z,10.33
2022-09-25T10:31:32.894Z,10.23
2022-09-25T10:34:02.406Z,10.33
2022-09-25T10:36:41.206Z,10.20
2022-09-25T10:39:44.637Z,8.93
2022-09-25T10:42:57.473Z,9.00
2022-09-25T10:45:31.451Z,9.17
2022-09-25T10:48:17.364Z,9.73
2022-09-25T10:50:44.805Z,10.60
2022-09-25T10:53:30.405Z,9.30
2022-09-25T10:56:07.345Z,9.33
2022-09-25T10:58:48.141Z,8.13
2022-09-25T11:01:16.897Z,7.90
2022-09-25T11:03:56.593Z,9.33
2022-09-25T11:06:23.294Z,8.33
2022-09-25T11:09:00.362Z,8.50
2022-09-25T11:11:27.482Z,8.77
2022-09-25T11:13:58.194Z,8.13
2022-09-25T11:16:54.228Z,8.43
2022-09-25T11:19:28.938Z,8.40
2022-09-25T11:22:20.284Z,8.93
2022-09-25T11:25:13.013Z,8.13
2022-09-25T11:28:06.860Z,7.47
2022-09-25T11:30:43.196Z,8.63
2022-09-25T11:33:25.668Z,8.43
2022-09-25T11:35:56.702Z,8.20
2022-09-25T11:39:00.167Z,7.73
2022-09-25T11:41:35.902Z,7.83
2022-09-25T11:44:08.503Z,8.10
2022-09-25T11:47:03.032Z,7.90
2022-09-25T11:49:34.585Z,7.53
2022-09-25T11:52:29.357Z,7.40
2022-09-25T11:55:43.229Z,7.67
2022-09-25T11:58:16.154Z,7.50
2022-09-25T12:01:01.689Z,7.27
2022-09-25T12:03:37.312Z,7.23
2022-09-25T12:06:14.398Z,7.00
2022-09-25T12:08:59.347Z,7.53
2022-09-25T12:11:45.678Z,7.40
2022-09-25T12:14:23.189Z,6.77
2022-09-25T12:17:31.834Z,8.00
2022-09-25T12:20:07.376Z,6.53
2022-09-25T12:22:50.572Z,7.20
2022-09-25T12:25:33.218Z,6.97
2022-09-25T12:28:17.522Z,6.07
2022-09-25T12:31:14.624Z,12.40
2022-09-25T12:34:04.408Z,6.60
2022-09-25T12:36:48.023Z,7.47
2022-09-25T12:39:37.241Z,9.20
2022-09-25T12:42:16.914Z,7.50
2022-09-25T12:44:59.730Z,7.83
2022-09-25T12:47:43.101Z,6.73
2022-09-25T12:50:13.584Z,7.70
2022-09-25T12:52:50.713Z,7.40
2022-09-25T12:55:32.766Z,8.70
2022-09-25T12:58:04.976Z,7.47
2022-09-25T13:00:35.637Z,8.10
2022-09-25T13:03:23.713Z,7.77
2022-09-25T13:05:55.839Z,7.80
2022-09-25T13:08:27.615Z,8.20
2022-09-25T13:11:06.102Z,7.90
2022-09-25T13:13:40.698Z,10.30
2022-09-25T13:16:07.483Z,8.10
2022-09-25T13:18:35.914Z,8.53
2022-09-25T13:21:23.428Z,7.93
2022-09-25T13:23:52.307Z,7.47
2022-09-25T13:26:25.083Z,7.30
2022-09-25T13:29:14.125Z,8.10
2022-09-25T13:31:44.410Z,8.50
2022-09-25T13:34:14.714Z,7.77
2022-09-25T13:36:54.003Z,8.40
2022-09-25T13:39:50.482Z,7.20
2022-09-25T13:42:39.782Z,7.33
2022-09-25T13:45:21.700Z,7.67
2022-09-25T13:48:12.641Z,7.80
2022-09-25T13:50:46.931Z,7.63
2022-09-25T13:53:22.450Z,6.70
2022-09-25T13:55:55.215Z,6.63
2022-09-25T13:58:22.779Z,7.23
2022-09-25T14:00:53.296Z,7.63
2022-09-25T14:03:41.637Z,7.33
2022-09-25T14:06:20.197Z,6.70
2022-09-25T14:08:49.466Z,6.30
2022-09-25T14:11:22.779Z,7.33
2022-09-25T14:13:55.200Z,7.33
2022-09-25T14:16:33.713Z,7.00
2022-09-25T14:19:02.829Z,6.77
2022-09-25T14:21:33.566Z,6.77
2022-09-25T14:24:20.483Z,7.10
2022-09-25T14:26:48.972Z,6.97
2022-09-25T14:29:40.118Z,5.90
2022-09-25T14:32:54.465Z,6.10
2022-09-25T14:35:46.763Z,6.87
2022-09-25T14:38:36.850Z,6.20
2022-09-25T14:41:28.898Z,6.10
2022-09-25T14:44:04.066Z,6.27
2022-09-25T14:46:32.720Z,6.70
2022-09-25T14:49:33.378Z,6.30
2022-09-25T14:52:04.534Z,5.90
2022-09-25T14:54:36.529Z,6.13
2022-09-25T14:57:05.991Z,6.27
2022-09-25T14:59:51.666Z,6.77
2022-09-25T15:02:34.355Z,7.00
2022-09-25T15:05:28.139Z,6.37
2022-09-25T15:07:59.271Z,6.53
2022-09-25T15:10:25.904Z,6.63
2022-09-25T15:12:53.368Z,6.07
2022-09-25T15:15:21.632Z,6.80
2022-09-25T15:17:59.421Z,6.37
2022-09-25T15:20:39.768Z,7.27
2022-09-25T15:23:18.658Z,7.97
2022-09-25T15:25:52.833Z,5.63
2022-09-25T15:28:25.353Z,6.33
2022-09-25T15:31:03.730Z,6.90
2022-09-25T15:33:33.949Z,6.83
2022-09-25T15:36:08.488Z,6.70
2022-09-25T15:38:37.346Z,6.13
2022-09-25T15:41:09.748Z,6.30
2022-09-25T15:43:36.513Z,6.40
2022-09-25T15:46:09.109Z,5.40
2022-09-25T15:48:52.551Z,6.53
2022-09-25T15:51:24.905Z,6.80
2022-09-25T15:54:25.925Z,6.40
2022-09-25T15:56:55.292Z,6.07
2022-09-25T15:59:27.947Z,5.70
2022-09-25T16:02:13.683Z,6.93
2022-09-25T16:04:50.521Z,5.67
2022-09-25T16:07:32.155Z,5.40
2022-09-25T16:10:03.418Z,6.10
2022-09-25T16:12:45.852Z,6.17
2022-09-25T16:15:27.429Z,5.50
2022-09-25T16:18:14.097Z,5.20
2022-09-25T16:20:41.788Z,5.40
2022-09-25T16:23:29.856Z,5.60
2022-09-25T16:25:59.994Z,5.20
2022-09-25T16:28:30.907Z,5.47
2022-09-25T16:31:10.651Z,5.37
2022-09-25T16:33:41.825Z,5.73
2022-09-25T16:36:18.322Z,5.20
2022-09-25T16:39:10.263Z,5.40
2022-09-25T16:41:39.108Z,4.83
2022-09-25T16:44:14.672Z,5.73
2022-09-25T16:46:43.033Z,5.97
2022-09-25T16:49:12.072Z,4.63
2022-09-25T16:51:45.932Z,5.30
2022-09-25T16:54:15.672Z,5.00
2022-09-25T16:56:43.621Z,5.10
2022-09-25T16:59:19.413Z,4.80
2022-09-25T17:01:47.559Z,4.77
2022-09-25T17:04:15.741Z,4.60
2022-09-25T17:06:47.478Z,4.90
2022-09-25T17:09:15.813Z,4.30
2022-09-25T17:11:45.160Z,5.00
2022-09-25T17:14:24.602Z,5.07
2022-09-25T17:16:52.753Z,5.40
2022-09-25T17:19:20.569Z,4.60
2022-09-25T17:21:50.164Z,5.07
2022-09-25T17:24:18.302Z,5.17
2022-09-25T17:26:45.338Z,5.20
2022-09-25T17:29:12.248Z,5.67
2022-09-25T17:31:39.700Z,4.57
2022-09-25T17:34:17.140Z,5.47
2022-09-25T17:36:44.621Z,4.23
2022-09-25T17:39:11.519Z,5.83
2022-09-25T17:41:38.942Z,5.97
2022-09-25T17:44:09.003Z,4.90
2022-09-25T17:46:36.833Z,5.27
2022-09-25T17:49:03.983Z,5.47
2022-09-25T17:51:31.159Z,6.60
2022-09-25T17:53:59.359Z,6.30
2022-09-25T17:56:30.187Z,6.00
2022-09-25T17:58:57.913Z,7.40
2022-09-25T18:01:27.901Z,6.70
2022-09-25T18:03:57.091Z,7.53
2022-09-25T18:06:25.446Z,6.67
2022-09-25T18:08:54.274Z,7.13
2022-09-25T18:11:22.039Z,7.37
2022-09-25T18:13:53.550Z,7.33
2022-09-25T18:16:24.427Z,6.77
2022-09-25T18:19:09.787Z,6.40
2022-09-25T18:21:55.302Z,6.00
2022-09-25T18:24:22.065Z,6.00
2022-09-25T18:26:51.343Z,6.00
2022-09-25T18:29:19.433Z,5.60
2022-09-25T18:31:47.395Z,6.47
2022-09-25T18:34:15.329Z,5.53
2022-09-25T18:36:43.083Z,5.37
2022-09-25T18:39:10.228Z,5.30
2022-09-25T18:41:42.049Z,6.10
2022-09-25T18:44:08.743Z,5.67
2022-09-25T18:46:38.204Z,5.80
2022-09-25T18:49:06.037Z,6.10
2022-09-25T18:51:33.961Z,5.87
2022-09-25T18:54:00.728Z,5.50
2022-09-25T18:56:28.205Z,6.43
2022-09-25T18:58:54.933Z,5.83
2022-09-25T19:01:21.909Z,5.50
2022-09-25T19:03:52.557Z,4.93
2022-09-25T19:06:19.851Z,5.10
2022-09-25T19:08:52.902Z,5.23
2022-09-25T19:11:19.702Z,4.73
2022-09-25T19:13:46.474Z,5.57
2022-09-25T19:16:14.219Z,5.83
2022-09-25T19:18:41.021Z,5.30
2022-09-25T19:21:07.706Z,5.43
2022-09-25T19:23:35.533Z,4.60
2022-09-25T19:26:04.995Z,5.77
2022-09-25T19:28:33.855Z,5.50
2022-09-25T19:31:03.420Z,4.90
2022-09-25T19:33:32.424Z,5.50
2022-09-25T19:36:01.002Z,4.43
2022-09-25T19:38:32.183Z,4.53
2022-09-25T19:40:59.359Z,5.93
2022-09-25T19:43:26.169Z,5.20
2022-09-25T19:45:54.739Z,5.20
2022-09-25T19:48:23.662Z,5.23
2022-09-25T19:57:29.803Z,4.83
2022-09-25T19:59:56.472Z,5.27
2022-09-25T20:02:23.222Z,4.90
2022-09-25T20:04:49.974Z,5.43
2022-09-25T20:07:17.801Z,5.00
2022-09-25T20:09:44.665Z,5.27
2022-09-25T20:12:11.723Z,5.40
2022-09-25T20:14:38.472Z,4.90
2022-09-25T20:17:09.885Z,5.30
2022-09-25T20:19:37.746Z,5.27
2022-09-25T20:22:04.993Z,5.70
2022-09-25T20:24:31.653Z,5.50
2022-09-25T20:26:58.325Z,5.00
2022-09-25T20:29:25.254Z,5.50
2022-09-25T20:31:51.928Z,5.33
2022-09-25T20:34:20.962Z,5.17
2022-09-25T20:36:48.157Z,4.97
2022-09-25T20:39:20.469Z,4.97
2022-09-25T20:41:47.547Z,5.23
2022-09-25T20:44:14.357Z,5.43
2022-09-25T20:46:42.085Z,5.13
2022-09-25T20:49:10.680Z,5.80
2022-09-25T20:51:37.505Z,4.70
2022-09-25T20:54:07.170Z,5.60
2022-09-25T20:56:35.429Z,5.77
2022-09-25T20:59:02.753Z,5.40
2022-09-25T21:01:34.630Z,5.10
2022-09-25T21:04:03.096Z,4.80
2022-09-25T21:06:33.172Z,5.20
2022-09-25T21:09:02.155Z,4.90
2022-09-25T21:11:30.618Z,5.20
2022-09-25T21:14:00.325Z,5.50
2022-09-25T21:16:28.680Z,4.70
2022-09-25T21:18:59.106Z,5.03
2022-09-25T21:21:27.043Z,4.37
2022-09-25T21:23:55.835Z,5.03
2022-09-25T21:26:25.579Z,5.10
2022-09-25T21:28:54.961Z,5.13
2022-09-25T21:31:31.653Z,4.30
2022-09-25T21:33:59.692Z,4.43
2022-09-25T21:36:27.874Z,4.93
2022-09-25T21:38:55.135Z,4.20
2022-09-25T21:41:24.258Z,5.10
2022-09-25T21:43:55.720Z,5.07
2022-09-25T21:46:23.206Z,4.97
2022-09-25T21:49:01.958Z,4.60
2022-09-25T21:51:35.120Z,4.33
2022-09-25T21:54:02.338Z,4.17
2022-09-25T21:56:31.679Z,4.73
2022-09-25T21:59:00.936Z,4.70
2022-09-25T22:01:33.489Z,4.20
2022-09-25T22:04:00.466Z,4.20
2022-09-25T22:06:30.911Z,4.30
2022-09-25T22:09:00.522Z,4.50
2022-09-25T22:11:27.740Z,4.87
2022-09-25T22:13:57.359Z,4.80
2022-09-25T22:16:36.040Z,4.20
2022-09-25T22:19:20.526Z,4.27
2022-09-25T22:21:49.006Z,5.00
2022-09-25T22:24:16.609Z,4.57
2022-09-25T22:26:45.358Z,4.03
2022-09-25T22:29:12.363Z,4.67
2022-09-25T22:31:43.289Z,3.37
2022-09-25T22:34:19.265Z,4.63
2022-09-25T22:36:46.645Z,4.10
2022-09-25T22:39:15.622Z,4.33
2022-09-25T22:41:42.356Z,4.03
2022-09-25T22:44:09.424Z,4.23
2022-09-25T22:46:36.398Z,3.97
2022-09-25T22:49:03.443Z,4.73
2022-09-25T22:51:30.125Z,4.10
2022-09-25T22:53:56.831Z,3.93
2022-09-25T22:56:29.319Z,3.77
2022-09-25T22:58:58.529Z,3.80
2022-09-25T23:01:33.495Z,3.70
2022-09-25T23:04:03.478Z,3.90
2022-09-25T23:06:32.171Z,3.97
2022-09-25T23:09:01.777Z,4.03
2022-09-25T23:11:28.575Z,3.90
2022-09-25T23:14:03.082Z,3.60
2022-09-25T23:16:31.888Z,3.93
2022-09-25T23:18:59.566Z,4.53
2022-09-25T23:21:28.249Z,4.40
2022-09-25T23:24:00.202Z,3.90
2022-09-25T23:26:27.470Z,4.50
2022-09-25T23:28:54.409Z,3.83
2022-09-25T23:31:22.370Z,3.63
2022-09-25T23:33:49.481Z,4.00
2022-09-25T23:36:21.333Z,4.03
2022-09-25T23:38:49.367Z,3.80
2022-09-25T23:41:25.328Z,3.83
2022-09-25T23:43:53.687Z,4.30
2022-09-25T23:46:22.657Z,3.80
2022-09-25T23:48:49.979Z,3.57
2022-09-25T23:51:18.317Z,4.13
2022-09-25T23:53:45.480Z,4.20
2022-09-25T23:56:21.588Z,3.37
2022-09-25T23:58:49.101Z,3.70
